createdAt,value
2018-12-22T00:00:26.467Z,0.80
2018-12-22T00:02:55.317Z,0.80
2018-12-22T00:05:24.164Z,1.07
2018-12-22T00:07:53.001Z,1.10
2018-12-22T00:10:21.856Z,1.43
2018-12-22T00:12:50.698Z,1.10
2018-12-22T00:15:20.287Z,1.00
2018-12-22T00:17:49.138Z,1.10
2018-12-22T00:20:17.986Z,0.80
2018-12-22T00:22:47.583Z,0.80
2018-12-22T00:25:17.261Z,1.40
2018-12-22T00:27:45.994Z,0.95
2018-12-22T00:30:15.578Z,1.07
2018-12-22T00:32:44.529Z,0.90
2018-12-22T00:35:13.279Z,1.83
2018-12-22T00:37:42.121Z,1.90
2018-12-22T00:40:10.957Z,1.17
2018-12-22T00:42:40.548Z,0.73
2018-12-22T00:45:09.407Z,1.20
2018-12-22T00:47:38.258Z,0.80
2018-12-22T00:50:07.104Z,1.20
2018-12-22T00:52:35.973Z,0.80
2018-12-22T00:55:04.812Z,1.52
2018-12-22T00:57:33.704Z,1.20
2018-12-22T01:00:03.301Z,1.73
2018-12-22T01:02:32.886Z,0.70
2018-12-22T01:05:02.475Z,1.87
2018-12-22T01:07:31.313Z,0.80
2018-12-22T01:10:00.166Z,1.60
2018-12-22T01:12:29.018Z,3.53
2018-12-22T01:14:57.860Z,2.47
2018-12-22T01:17:26.719Z,1.33
2018-12-22T01:19:55.554Z,1.70
2018-12-22T01:22:24.403Z,1.83
2018-12-22T01:24:53.246Z,0.80
2018-12-22T01:27:22.097Z,1.33
2018-12-22T01:29:50.942Z,1.33
2018-12-22T01:32:19.782Z,0.80
2018-12-22T01:34:48.617Z,0.77
2018-12-22T01:37:17.452Z,1.20
2018-12-22T01:39:46.285Z,0.77
2018-12-22T01:42:15.120Z,1.37
2018-12-22T01:44:43.959Z,0.73
2018-12-22T01:47:12.800Z,0.53
2018-12-22T01:49:41.712Z,1.07
2018-12-22T01:52:11.282Z,0.80
2018-12-22T01:54:40.115Z,0.60
2018-12-22T01:57:09.697Z,1.37
2018-12-22T01:59:38.531Z,1.23
2018-12-22T02:02:07.370Z,1.80
2018-12-22T02:04:36.202Z,0.87
2018-12-22T02:07:05.042Z,1.47
2018-12-22T02:09:33.893Z,1.00
2018-12-22T02:12:02.733Z,0.80
2018-12-22T02:14:31.584Z,0.60
2018-12-22T02:17:00.436Z,1.60
2018-12-22T02:19:30.028Z,2.30
2018-12-22T02:21:58.881Z,0.60
2018-12-22T02:24:27.720Z,1.00
2018-12-22T02:26:57.314Z,0.83
2018-12-22T02:29:26.887Z,0.60
2018-12-22T02:31:55.735Z,0.70
2018-12-22T02:34:24.575Z,1.30
2018-12-22T02:36:53.403Z,0.70
2018-12-22T02:39:22.987Z,0.80
2018-12-22T02:41:51.835Z,1.90
2018-12-22T02:44:20.661Z,0.70
2018-12-22T02:46:49.501Z,1.20
2018-12-22T02:49:18.347Z,1.07
2018-12-22T02:51:47.176Z,0.90
2018-12-22T02:54:16.033Z,1.37
2018-12-22T02:56:44.884Z,2.60
2018-12-22T02:59:13.720Z,1.70
2018-12-22T03:01:42.563Z,1.03
2018-12-22T03:04:11.398Z,1.70
2018-12-22T03:06:40.238Z,1.43
2018-12-22T03:09:09.071Z,1.87
2018-12-22T03:11:38.637Z,0.87
2018-12-22T03:14:07.461Z,1.20
2018-12-22T03:16:37.045Z,0.87
2018-12-22T03:19:06.641Z,1.20
2018-12-22T03:21:35.487Z,0.80
2018-12-22T03:24:04.331Z,1.73
2018-12-22T03:26:33.165Z,1.67
2018-12-22T03:29:02.011Z,2.03
2018-12-22T03:31:30.840Z,0.77
2018-12-22T03:33:59.695Z,0.80
2018-12-22T03:36:28.545Z,1.63
2018-12-22T03:38:57.375Z,1.15
2018-12-22T03:41:26.227Z,0.80
2018-12-22T03:43:55.065Z,1.00
2018-12-22T03:46:24.641Z,1.30
2018-12-22T03:48:53.474Z,1.67
2018-12-22T03:51:23.065Z,2.03
2018-12-22T03:53:52.759Z,0.70
2018-12-22T03:56:21.613Z,0.60
2018-12-22T03:58:50.458Z,1.20
2018-12-22T04:01:19.316Z,1.03
2018-12-22T04:03:48.131Z,0.67
2018-12-22T04:06:17.699Z,0.80
2018-12-22T04:08:46.522Z,1.43
2018-12-22T04:11:15.377Z,0.80
2018-12-22T04:13:44.224Z,0.70
2018-12-22T04:16:13.054Z,1.00
2018-12-22T04:18:41.899Z,0.87
2018-12-22T04:21:10.755Z,0.50
2018-12-22T04:23:39.599Z,0.70
2018-12-22T04:26:08.441Z,1.57
2018-12-22T04:28:37.277Z,0.70
2018-12-22T04:31:06.110Z,1.50
2018-12-22T04:36:13.467Z,0.80
2018-12-22T04:38:42.303Z,0.57
2018-12-22T04:41:11.134Z,2.23
2018-12-22T04:43:39.973Z,1.00
2018-12-22T04:46:08.807Z,1.67
2018-12-22T04:48:37.647Z,0.70
2018-12-22T04:51:06.488Z,1.70
2018-12-22T04:53:38.964Z,0.97
2018-12-22T04:56:07.787Z,1.30
2018-12-22T04:58:36.637Z,2.40
2018-12-22T05:01:05.467Z,2.20
2018-12-22T05:03:34.299Z,1.83
2018-12-22T05:06:03.124Z,2.33
2018-12-22T05:08:31.971Z,1.33
2018-12-22T05:11:00.799Z,1.27
2018-12-22T05:13:29.666Z,0.70
2018-12-22T05:15:59.243Z,0.50
2018-12-22T05:18:28.096Z,0.80
2018-12-22T05:20:56.945Z,0.37
2018-12-22T05:23:26.535Z,1.55
2018-12-22T05:25:56.123Z,1.03
2018-12-22T05:28:24.959Z,1.83
2018-12-22T05:30:53.810Z,0.60
2018-12-22T05:33:23.250Z,0.70
2018-12-22T05:35:52.835Z,1.27
2018-12-22T05:38:21.683Z,1.50
2018-12-22T05:40:50.528Z,2.37
2018-12-22T05:43:19.377Z,0.90
2018-12-22T05:45:48.224Z,1.03
2018-12-22T05:48:17.066Z,0.43
2018-12-22T05:50:45.912Z,1.40
2018-12-22T05:53:14.752Z,1.50
2018-12-22T05:55:44.338Z,1.27
2018-12-22T05:58:13.173Z,2.20
2018-12-22T06:00:42.046Z,1.23
2018-12-22T06:03:10.894Z,1.97
2018-12-22T06:05:39.732Z,3.70
2018-12-22T06:08:09.318Z,0.80
2018-12-22T06:10:38.900Z,1.27
2018-12-22T06:13:07.730Z,1.40
2018-12-22T06:15:37.308Z,1.57
2018-12-22T06:18:06.734Z,0.97
2018-12-22T06:20:36.368Z,1.13
2018-12-22T06:23:05.216Z,2.83
2018-12-22T06:25:34.081Z,2.13
2018-12-22T06:28:02.940Z,3.58
2018-12-22T06:30:31.829Z,5.63
2018-12-22T06:33:01.361Z,2.80
2018-12-22T06:35:30.203Z,2.57
2018-12-22T06:37:59.046Z,2.03
2018-12-22T06:40:27.890Z,3.00
2018-12-22T06:42:56.724Z,1.33
2018-12-22T06:45:25.560Z,1.23
2018-12-22T06:47:54.410Z,1.40
2018-12-22T06:50:23.244Z,1.10
2018-12-22T06:52:52.099Z,1.33
2018-12-22T06:55:20.926Z,1.70
2018-12-22T06:57:49.788Z,1.13
2018-12-22T07:00:19.359Z,1.63
2018-12-22T07:02:48.205Z,1.20
2018-12-22T07:05:17.036Z,1.47
2018-12-22T07:07:45.868Z,2.00
2018-12-22T07:10:15.462Z,0.97
2018-12-22T07:12:44.300Z,2.20
2018-12-22T07:15:13.137Z,4.60
2018-12-22T07:17:41.979Z,2.43
2018-12-22T07:20:10.820Z,1.65
2018-12-22T07:22:39.695Z,1.23
2018-12-22T07:25:08.575Z,2.28
2018-12-22T07:27:37.376Z,3.87
2018-12-22T07:30:06.958Z,2.17
2018-12-22T07:32:35.801Z,4.22
2018-12-22T07:35:04.673Z,3.23
2018-12-22T07:37:34.256Z,4.00
2018-12-22T07:40:03.098Z,2.30
2018-12-22T07:42:31.942Z,2.50
2018-12-22T07:45:00.794Z,2.17
2018-12-22T07:47:29.648Z,4.90
2018-12-22T07:49:58.506Z,4.60
2018-12-22T07:52:27.938Z,4.33
2018-12-22T07:54:56.775Z,5.00
2018-12-22T07:57:25.664Z,6.07
2018-12-22T07:59:55.196Z,3.63
2018-12-22T08:02:24.039Z,4.72
2018-12-22T08:04:52.892Z,4.27
2018-12-22T08:07:22.486Z,5.10
2018-12-22T08:09:51.933Z,4.68
2018-12-22T08:12:20.785Z,3.57
2018-12-22T08:14:49.636Z,3.77
2018-12-22T08:17:18.478Z,3.00
2018-12-22T08:19:48.074Z,2.97
2018-12-22T08:22:17.674Z,5.33
2018-12-22T08:24:46.485Z,3.53
2018-12-22T08:27:15.340Z,3.37
2018-12-22T08:29:44.200Z,4.70
2018-12-22T08:32:13.038Z,3.83
2018-12-22T08:34:42.622Z,6.43
2018-12-22T08:37:11.461Z,4.57
2018-12-22T08:39:40.300Z,5.40
2018-12-22T08:42:09.138Z,5.33
2018-12-22T08:44:38.854Z,3.30
2018-12-22T08:47:07.648Z,5.37
2018-12-22T08:49:36.499Z,6.00
2018-12-22T08:52:05.344Z,3.37
2018-12-22T08:54:34.183Z,6.53
2018-12-22T08:57:03.772Z,5.27
2018-12-22T08:59:32.609Z,3.67
2018-12-22T09:02:01.468Z,3.60
2018-12-22T09:04:31.086Z,5.10
2018-12-22T09:06:59.935Z,4.20
2018-12-22T09:09:28.788Z,5.30
2018-12-22T09:11:57.688Z,5.80
2018-12-22T09:14:27.224Z,5.63
2018-12-22T09:16:56.931Z,4.20
2018-12-22T09:19:25.805Z,6.67
2018-12-22T09:21:54.678Z,4.77
2018-12-22T09:24:23.616Z,6.17
2018-12-22T09:26:55.567Z,4.97
2018-12-22T09:29:24.364Z,6.43
2018-12-22T09:31:53.206Z,6.77
2018-12-22T09:34:22.037Z,5.83
2018-12-22T09:36:51.474Z,5.03
2018-12-22T09:39:20.317Z,13.03
2018-12-22T09:41:49.154Z,9.77
2018-12-22T09:44:17.996Z,6.90
2018-12-22T09:46:46.899Z,6.67
2018-12-22T09:49:15.711Z,6.97
2018-12-22T09:51:45.291Z,3.87
2018-12-22T09:54:14.142Z,5.70
2018-12-22T09:56:42.982Z,5.93
2018-12-22T09:59:12.583Z,4.80
2018-12-22T10:01:41.434Z,4.63
2018-12-22T10:04:10.275Z,5.05
2018-12-22T10:06:39.115Z,5.23
2018-12-22T10:09:07.957Z,8.40
2018-12-22T10:11:37.541Z,5.37
2018-12-22T10:14:06.373Z,5.10
2018-12-22T10:16:35.429Z,5.93
2018-12-22T10:19:04.095Z,5.87
2018-12-22T10:21:32.946Z,8.05
2018-12-22T10:24:01.790Z,5.77
2018-12-22T10:26:30.641Z,5.53
2018-12-22T10:28:59.475Z,6.17
2018-12-22T10:31:28.335Z,5.23
2018-12-22T10:33:57.160Z,5.62
2018-12-22T10:36:26.743Z,4.63
2018-12-22T10:38:56.163Z,4.80
2018-12-22T10:41:25.744Z,4.07
2018-12-22T10:43:54.584Z,5.30
2018-12-22T10:46:23.428Z,4.27
2018-12-22T10:48:52.274Z,3.57
2018-12-22T10:51:24.383Z,4.07
2018-12-22T10:53:50.691Z,3.40
2018-12-22T10:56:19.550Z,4.67
2018-12-22T10:58:48.377Z,4.23
2018-12-22T11:01:17.228Z,4.33
2018-12-22T11:03:46.096Z,4.70
2018-12-22T11:06:15.702Z,4.37
2018-12-22T11:08:45.443Z,4.77
2018-12-22T11:11:14.335Z,4.00
2018-12-22T11:13:43.899Z,3.73
2018-12-22T11:16:13.474Z,3.40
2018-12-22T11:18:42.316Z,3.67
2018-12-22T11:21:11.152Z,3.33
2018-12-22T11:23:40.002Z,3.27
2018-12-22T11:26:08.845Z,4.37
2018-12-22T11:28:37.693Z,4.57
2018-12-22T11:31:06.536Z,3.62
2018-12-22T11:33:36.136Z,4.17
2018-12-22T11:36:04.985Z,2.83
2018-12-22T11:38:33.830Z,3.87
2018-12-22T11:41:03.414Z,1.90
2018-12-22T11:43:32.254Z,4.50
2018-12-22T11:46:01.090Z,2.97
2018-12-22T11:48:29.938Z,4.93
2018-12-22T11:50:58.784Z,3.37
2018-12-22T11:53:28.368Z,3.77
2018-12-22T11:55:57.216Z,5.20
2018-12-22T11:58:26.072Z,6.23
2018-12-22T12:00:55.657Z,5.10
2018-12-22T12:03:24.503Z,3.17
2018-12-22T12:05:53.354Z,5.83
2018-12-22T12:08:22.948Z,5.73
2018-12-22T12:10:51.792Z,6.82
2018-12-22T12:13:20.646Z,6.37
2018-12-22T12:15:50.248Z,4.90
2018-12-22T12:18:25.996Z,6.80
2018-12-22T12:20:54.856Z,5.70
2018-12-22T12:23:23.708Z,7.17
2018-12-22T12:25:52.559Z,6.50
2018-12-22T12:28:21.410Z,5.67
2018-12-22T12:30:50.258Z,5.57
2018-12-22T12:33:19.120Z,6.67
2018-12-22T12:35:47.948Z,5.63
2018-12-22T12:38:16.790Z,7.33
2018-12-22T12:40:45.650Z,7.03
2018-12-22T12:43:14.504Z,8.27
2018-12-22T12:45:44.123Z,7.87
2018-12-22T12:48:13.687Z,5.40
2018-12-22T12:50:42.544Z,8.57
2018-12-22T12:53:11.443Z,5.87
2018-12-22T12:55:40.245Z,5.97
2018-12-22T12:58:09.085Z,7.40
2018-12-22T13:00:37.941Z,6.40
2018-12-22T13:03:08.352Z,5.40
2018-12-22T13:05:35.698Z,6.55
2018-12-22T13:08:04.534Z,5.87
2018-12-22T13:10:33.367Z,7.43
2018-12-22T13:13:10.558Z,5.60
2018-12-22T13:15:39.414Z,7.43
2018-12-22T13:18:08.251Z,7.80
2018-12-22T13:20:37.826Z,6.67
2018-12-22T13:23:06.655Z,7.40
2018-12-22T13:25:35.509Z,9.23
2018-12-22T13:28:04.334Z,5.23
2018-12-22T13:30:33.182Z,6.10
2018-12-22T13:33:02.556Z,6.50
2018-12-22T13:35:31.629Z,6.07
2018-12-22T13:38:01.217Z,9.67
2018-12-22T13:40:30.087Z,7.47
2018-12-22T13:42:58.933Z,6.70
2018-12-22T13:45:27.896Z,6.63
2018-12-22T13:47:56.680Z,7.10
2018-12-22T13:50:25.657Z,8.40
2018-12-22T13:52:54.290Z,8.23
2018-12-22T13:55:23.157Z,6.33
2018-12-22T13:57:52.029Z,5.93
2018-12-22T14:00:20.881Z,4.75
2018-12-22T14:02:49.727Z,3.47
2018-12-22T14:07:58.582Z,3.72
2018-12-22T14:10:27.422Z,2.73
2018-12-22T14:12:56.289Z,3.47
2018-12-22T14:15:25.132Z,3.83
2018-12-22T14:18:02.435Z,3.73
2018-12-22T14:20:32.023Z,4.87
2018-12-22T14:23:00.875Z,4.33
2018-12-22T14:25:29.712Z,3.40
2018-12-22T14:27:58.561Z,4.07
2018-12-22T14:30:27.530Z,4.63
2018-12-22T14:32:56.291Z,2.97
2018-12-22T14:35:25.139Z,5.90
2018-12-22T14:37:54.015Z,3.37
2018-12-22T14:40:22.845Z,4.23
2018-12-22T14:42:51.727Z,2.90
2018-12-22T14:45:20.610Z,4.30
2018-12-22T14:47:49.453Z,3.33
2018-12-22T14:50:19.015Z,6.13
2018-12-22T14:52:47.854Z,4.97
2018-12-22T14:55:16.715Z,5.40
2018-12-22T14:57:48.199Z,4.57
2018-12-22T15:00:17.057Z,6.00
2018-12-22T15:02:45.892Z,6.57
2018-12-22T15:05:14.747Z,5.47
2018-12-22T15:07:43.600Z,5.57
2018-12-22T15:10:12.446Z,5.20
2018-12-22T15:12:41.289Z,4.20
2018-12-22T15:15:10.899Z,7.07
2018-12-22T15:17:40.673Z,6.73
2018-12-22T15:22:53.832Z,5.90
2018-12-22T15:25:22.684Z,4.17
2018-12-22T15:27:51.519Z,5.85
2018-12-22T15:30:20.381Z,4.87
2018-12-22T15:32:54.455Z,4.67
2018-12-22T15:35:18.076Z,4.80
2018-12-22T15:37:46.928Z,5.60
2018-12-22T15:40:15.782Z,4.33
2018-12-22T15:42:44.636Z,4.00
2018-12-22T15:45:15.416Z,4.77
2018-12-22T15:47:44.260Z,4.70
2018-12-22T15:50:13.422Z,4.13
2018-12-22T15:52:42.271Z,4.43
2018-12-22T15:55:11.850Z,6.57
2018-12-22T15:57:40.718Z,5.70
2018-12-22T16:00:09.561Z,6.55
2018-12-22T16:02:38.408Z,4.77
2018-12-22T16:05:09.117Z,5.03
2018-12-22T16:07:37.960Z,6.93
2018-12-22T16:10:08.416Z,6.40
2018-12-22T16:12:37.274Z,8.73
2018-12-22T16:15:06.918Z,5.53
2018-12-22T16:17:35.767Z,8.27
2018-12-22T16:20:04.626Z,6.23
2018-12-22T16:22:33.464Z,6.20
2018-12-22T16:25:11.155Z,4.63
2018-12-22T16:27:32.639Z,3.00
2018-12-22T16:30:02.075Z,4.47
2018-12-22T16:32:31.676Z,5.10
2018-12-22T16:35:01.254Z,4.30
2018-12-22T16:37:30.109Z,4.57
2018-12-22T16:39:58.959Z,3.90
2018-12-22T16:42:28.530Z,5.43
2018-12-22T16:44:57.410Z,5.50
2018-12-22T16:47:26.223Z,6.13
2018-12-22T16:49:55.062Z,6.00
2018-12-22T16:52:23.903Z,5.53
2018-12-22T16:54:53.503Z,4.87
2018-12-22T16:57:22.925Z,5.70
2018-12-22T16:59:52.541Z,4.77
2018-12-22T17:02:21.403Z,5.75
2018-12-22T17:04:50.284Z,5.17
2018-12-22T17:07:19.092Z,3.83
2018-12-22T17:09:47.945Z,5.10
2018-12-22T17:12:16.784Z,5.18
2018-12-22T17:14:46.367Z,3.97
2018-12-22T17:17:15.226Z,4.50
2018-12-22T17:19:44.082Z,5.03
2018-12-22T17:22:13.656Z,3.90
2018-12-22T17:24:42.511Z,4.87
2018-12-22T17:27:11.387Z,5.83
2018-12-22T17:29:40.209Z,5.03
2018-12-22T17:32:09.050Z,5.53
2018-12-22T17:34:37.905Z,7.17
2018-12-22T17:37:06.739Z,4.80
2018-12-22T17:39:36.857Z,6.10
2018-12-22T17:42:04.433Z,5.97
2018-12-22T17:44:33.273Z,6.03
2018-12-22T17:47:02.138Z,4.87
2018-12-22T17:49:30.989Z,6.05
2018-12-22T17:51:59.827Z,5.83
2018-12-22T17:54:28.679Z,4.40
2018-12-22T17:56:57.507Z,6.57
2018-12-22T17:59:26.365Z,5.80
2018-12-22T18:01:55.204Z,6.30
2018-12-22T18:04:24.816Z,5.70
2018-12-22T18:06:54.394Z,5.43
2018-12-22T18:09:23.241Z,3.93
2018-12-22T18:11:52.081Z,3.13
2018-12-22T18:14:20.911Z,4.47
2018-12-22T18:16:49.757Z,5.27
2018-12-22T18:19:19.356Z,4.97
2018-12-22T18:21:48.203Z,5.30
2018-12-22T18:24:17.061Z,3.27
2018-12-22T18:26:46.665Z,4.07
2018-12-22T18:29:16.249Z,4.07
2018-12-22T18:31:45.096Z,5.37
2018-12-22T18:34:13.936Z,2.93
2018-12-22T18:36:42.806Z,2.97
2018-12-22T18:39:11.655Z,4.97
2018-12-22T18:41:40.509Z,2.83
2018-12-22T18:44:10.098Z,3.70
2018-12-22T18:46:38.950Z,6.00
2018-12-22T18:49:07.784Z,4.83
2018-12-22T18:51:37.227Z,4.07
2018-12-22T18:54:06.061Z,5.03
2018-12-22T18:56:34.906Z,3.00
2018-12-22T18:59:03.749Z,5.03
2018-12-22T19:01:32.596Z,4.30
2018-12-22T19:04:01.440Z,3.83
2018-12-22T19:06:30.285Z,2.37
2018-12-22T19:08:59.135Z,3.70
2018-12-22T19:11:27.989Z,4.43
2018-12-22T19:13:56.835Z,5.37
2018-12-22T19:16:25.687Z,4.23
2018-12-22T19:18:54.590Z,3.53
2018-12-22T19:21:23.360Z,3.30
2018-12-22T19:23:52.966Z,4.80
2018-12-22T19:26:21.813Z,4.12
2018-12-22T19:28:50.691Z,5.53
2018-12-22T19:31:19.544Z,4.73
2018-12-22T19:33:53.479Z,5.40
2018-12-22T19:36:17.991Z,3.07
2018-12-22T19:38:46.841Z,5.00
2018-12-22T19:41:15.684Z,7.60
2018-12-22T19:43:44.534Z,6.50
2018-12-22T19:46:13.408Z,2.93
2018-12-22T19:48:42.269Z,4.03
2018-12-22T19:51:11.721Z,6.97
2018-12-22T19:53:40.575Z,4.43
2018-12-22T19:56:09.407Z,6.23
2018-12-22T19:58:38.257Z,4.60
2018-12-22T20:01:07.902Z,4.60
2018-12-22T20:03:36.726Z,5.37
2018-12-22T20:06:05.572Z,5.95
2018-12-22T20:08:34.443Z,5.03
2018-12-22T20:11:03.283Z,5.70
2018-12-22T20:13:32.127Z,5.43
2018-12-22T20:16:08.729Z,3.83
2018-12-22T20:18:29.852Z,8.10
2018-12-22T20:20:58.708Z,5.73
2018-12-22T20:23:27.546Z,5.07
2018-12-22T20:25:56.386Z,6.23
2018-12-22T20:28:25.220Z,7.03
2018-12-22T20:30:54.074Z,6.17
2018-12-22T20:33:22.922Z,6.00
2018-12-22T20:35:52.504Z,6.70
2018-12-22T20:38:21.404Z,5.43
2018-12-22T20:40:50.214Z,7.17
2018-12-22T20:43:19.796Z,7.57
2018-12-22T20:45:48.646Z,4.97
2018-12-22T20:48:17.480Z,3.80
2018-12-22T20:50:47.057Z,8.17
2018-12-22T20:53:15.914Z,6.25
2018-12-22T20:55:44.748Z,5.20
2018-12-22T20:58:13.601Z,5.83
2018-12-22T21:00:42.462Z,5.27
2018-12-22T21:03:12.091Z,4.30
2018-12-22T21:05:40.928Z,4.43
2018-12-22T21:08:09.790Z,4.60
2018-12-22T21:10:38.786Z,1.97
2018-12-22T21:13:07.537Z,4.73
2018-12-22T21:15:37.874Z,3.37
2018-12-22T21:18:05.177Z,3.47
2018-12-22T21:20:34.023Z,4.63
2018-12-22T21:23:02.863Z,3.93
2018-12-22T21:25:31.728Z,4.63
2018-12-22T21:28:00.614Z,4.12
2018-12-22T21:30:29.443Z,3.83
2018-12-22T21:32:59.040Z,5.07
2018-12-22T21:35:28.624Z,5.13
2018-12-22T21:37:57.468Z,3.87
2018-12-22T21:40:26.307Z,3.33
2018-12-22T21:42:55.452Z,3.60
2018-12-22T21:45:24.050Z,3.73
2018-12-22T21:47:53.610Z,4.53
2018-12-22T21:50:22.450Z,5.68
2018-12-22T21:52:51.324Z,5.23
2018-12-22T21:55:20.187Z,4.60
2018-12-22T21:57:49.772Z,4.57
2018-12-22T22:00:19.367Z,3.75
2018-12-22T22:02:48.202Z,4.73
2018-12-22T22:05:17.049Z,3.40
2018-12-22T22:07:45.885Z,5.03
2018-12-22T22:10:14.745Z,5.23
2018-12-22T22:12:43.597Z,3.83
2018-12-22T22:15:12.436Z,5.67
2018-12-22T22:17:42.031Z,5.20
2018-12-22T22:20:10.899Z,5.90
2018-12-22T22:22:39.742Z,4.40
2018-12-22T22:25:08.589Z,6.13
2018-12-22T22:27:37.455Z,6.23
2018-12-22T22:30:06.353Z,5.43
2018-12-22T22:32:35.183Z,5.13
2018-12-22T22:35:04.026Z,5.40
2018-12-22T22:37:32.871Z,6.13
2018-12-22T22:40:01.749Z,5.07
2018-12-22T22:42:30.588Z,6.10
2018-12-22T22:44:59.427Z,5.93
2018-12-22T22:47:29.040Z,4.57
2018-12-22T22:49:58.630Z,5.83
2018-12-22T22:52:28.217Z,5.40
2018-12-22T22:54:57.062Z,5.93
2018-12-22T22:57:25.907Z,6.00
2018-12-22T22:59:54.775Z,5.53
2018-12-22T23:02:23.612Z,6.10
2018-12-22T23:04:54.600Z,6.50
2018-12-22T23:07:22.039Z,10.33
2018-12-22T23:09:50.874Z,8.45
2018-12-22T23:12:19.728Z,8.80
2018-12-22T23:14:48.569Z,8.25
2018-12-22T23:17:17.409Z,8.67
2018-12-22T23:19:46.242Z,7.37
2018-12-22T23:22:15.837Z,9.03
2018-12-22T23:24:44.725Z,9.45
2018-12-22T23:27:13.553Z,10.03
2018-12-22T23:29:42.391Z,8.60
2018-12-22T23:32:11.253Z,7.97
2018-12-22T23:34:40.141Z,9.57
2018-12-22T23:37:08.956Z,9.87
2018-12-22T23:39:37.792Z,7.63
2018-12-22T23:42:06.634Z,9.13
2018-12-22T23:44:36.055Z,8.97
2018-12-22T23:47:05.648Z,11.02
2018-12-22T23:49:34.516Z,11.48
2018-12-22T23:52:03.350Z,9.60
2018-12-22T23:54:32.209Z,8.97
2018-12-22T23:57:01.804Z,8.90
2018-12-22T23:59:30.640Z,8.50
